Portada
METAR-TAF:

METAR-TAF

Aeropuertos :

El Hierro, España

Aeropuerto de El Hierro

latitud: 27-49N, longitud: 017-53W, altitud: 32 m

Observación

El informe se hizo hace 30 minutos, a las 12:00 UTC
Viento 17 kt del norte
Temperatura 21°C
Humedad 69%
Presión 1021 hPa
Visibilidad 10 km o más
Escasas nubes a una altura de 2200 ft
Nubes dispersas a una altura de 3500 ft

METAR: GCHI 081200Z 35017KT 9999 FEW022 SCT035 21/15 Q1021

Hora: 12:30 (12:30 UTC)

Pronóstico

El informe se hizo hace 4 horas y 30 minutos, a las 08:00 UTC
Pronóstico válido del 08 a las 09 UTC al 09 a las 09 UTC
Viento 13 kt del norte
Visibilidad 10 km o más
Nubes dispersas a una altura de 2500 ft

TAF: GCHI 080800Z 0809/0909 35013KT 9999 SCT025 TX21/0814Z TN18/0907Z

Observaciones y pronósticos meteorológicos de más de 4000 aeropuertos (mensajes METAR y TAF).

Los puntos amarillos y rojos representan las estaciones disponibles.

Ponga el ratón en el punto deseado para ver el nombre de la estación.

Haga clic para ver las observaciones y los pronósticos meteorológicos.

Para cambiar el mapa : haga clic en los botones verdes con una cruz de color negro para hacer un zoom, en el botón verde con un guión para alejar o en las flechas verdes para mapas adyacentes.


METAR-TAF: